TimeMDT,TemperatureF,Dew PointF,Humidity,Sea Level PressureIn,VisibilityMPH,Wind Direction,Wind SpeedMPH,Gust SpeedMPH,PrecipitationIn,Events,Conditions,WindDirDegrees,DateUTC
12:53 AM,45.0,27.0,49,29.98,10.0,WNW,8.1,-,N/A,,Clear,300,2013-03-15 06:53:00
1:53 AM,43.0,27.0,53,29.96,10.0,WNW,8.1,-,N/A,,Clear,290,2013-03-15 07:53:00
2:53 AM,44.1,27.0,51,29.93,10.0,WNW,11.5,-,N/A,,Clear,290,2013-03-15 08:53:00
3:53 AM,45.0,27.0,49,29.88,10.0,WNW,11.5,-,N/A,,Clear,290,2013-03-15 09:53:00
4:53 AM,46.0,26.1,46,29.87,10.0,West,11.5,-,N/A,,Clear,270,2013-03-15 10:53:00
5:53 AM,48.9,26.1,41,29.86,10.0,West,9.2,-,N/A,,Clear,280,2013-03-15 11:53:00
6:53 AM,46.0,26.1,46,29.88,10.0,West,11.5,-,N/A,,Clear,280,2013-03-15 12:53:00
7:53 AM,48.9,26.1,41,29.89,10.0,West,10.4,-,N/A,,Clear,270,2013-03-15 13:53:00
8:53 AM,55.0,25.0,31,29.88,10.0,WNW,6.9,-,N/A,,Clear,290,2013-03-15 14:53:00
9:53 AM,61.0,23.0,23,29.85,10.0,West,10.4,-,N/A,,Clear,280,2013-03-15 15:53:00
10:53 AM,61.0,25.0,25,29.86,10.0,West,10.4,-,N/A,,Clear,280,2013-03-15 16:53:00
11:53 AM,71.1,26.1,19,29.80,10.0,WNW,20.7,27.6,N/A,,Clear,300,2013-03-15 17:53:00
12:53 PM,73.9,21.0,14,29.78,10.0,NNW,20.7,40.3,N/A,,Clear,330,2013-03-15 18:53:00
1:53 PM,72.0,16.0,12,29.78,10.0,NW,20.7,38.0,N/A,,Clear,310,2013-03-15 19:53:00
2:53 PM,73.9,15.1,11,29.75,10.0,NW,25.3,32.2,N/A,,Clear,320,2013-03-15 20:53:00
3:53 PM,72.0,17.1,12,29.74,10.0,NW,15.0,25.3,N/A,,Clear,320,2013-03-15 21:53:00
4:53 PM,72.0,19.0,13,29.73,10.0,NW,17.3,-,N/A,,Clear,310,2013-03-15 22:53:00
5:53 PM,68.0,19.9,16,29.74,10.0,North,12.7,-,N/A,,Clear,350,2013-03-15 23:53:00
6:53 PM,61.0,21.0,21,29.78,10.0,North,5.8,-,N/A,,Clear,360,2013-03-16 00:53:00
7:53 PM,55.0,21.9,28,29.80,10.0,NW,4.6,-,N/A,,Clear,320,2013-03-16 01:53:00
8:53 PM,52.0,27.0,38,29.83,10.0,NE,8.1,-,N/A,,Clear,40,2013-03-16 02:53:00
9:53 PM,46.9,28.0,48,29.83,10.0,East,12.7,-,N/A,,Partly Cloudy,80,2013-03-16 03:53:00
10:53 PM,42.1,27.0,55,29.87,10.0,NNE,8.1,-,N/A,,Clear,20,2013-03-16 04:53:00
11:53 PM,42.1,27.0,55,29.85,10.0,East,9.2,-,N/A,,Clear,80,2013-03-16 05:53:00